createdAt,value
2023-03-05T00:00:56.095Z,4.31
2023-03-05T00:05:45.898Z,4.30
2023-03-05T00:10:42.825Z,4.25
2023-03-05T00:15:32.605Z,4.25
2023-03-05T00:20:22.293Z,4.18
2023-03-05T00:25:13.087Z,4.13
2023-03-05T00:30:05.925Z,4.03
2023-03-05T00:34:57.461Z,3.90
2023-03-05T00:39:59.789Z,3.77
2023-03-05T00:44:52.819Z,3.72
2023-03-05T00:49:51.840Z,3.69
2023-03-05T00:54:42.618Z,3.64
2023-03-05T00:59:47.082Z,3.59
2023-03-05T01:04:38.391Z,3.53
2023-03-05T01:09:31.647Z,3.44
2023-03-05T01:14:26.556Z,3.42
2023-03-05T01:19:19.456Z,3.36
2023-03-05T01:24:11.264Z,3.33
2023-03-05T01:29:08.548Z,3.33
2023-03-05T01:34:00.967Z,3.40
2023-03-05T01:39:12.844Z,3.40
2023-03-05T01:44:29.144Z,3.38
2023-03-05T01:49:28.111Z,3.36
2023-03-05T01:54:32.815Z,3.36
2023-03-05T01:59:35.689Z,3.34
2023-03-05T02:04:35.738Z,3.34
2023-03-05T02:09:30.500Z,3.34
2023-03-05T02:14:25.180Z,3.38
2023-03-05T02:19:20.945Z,3.43
2023-03-05T02:24:16.268Z,3.49
2023-03-05T02:29:09.308Z,3.55
2023-03-05T02:34:03.079Z,3.55
2023-03-05T02:38:54.244Z,3.53
2023-03-05T02:43:52.973Z,3.47
2023-03-05T02:48:45.134Z,3.48
2023-03-05T02:53:44.804Z,3.43
2023-03-05T02:58:36.101Z,3.38
2023-03-05T03:03:35.634Z,3.30
2023-03-05T03:08:26.647Z,3.24
2023-03-05T03:13:17.129Z,3.28
2023-03-05T03:18:11.237Z,3.19
2023-03-05T03:23:04.914Z,3.11
2023-03-05T03:28:03.303Z,3.12
2023-03-05T03:32:59.708Z,3.12
2023-03-05T03:37:52.249Z,3.14
2023-03-05T03:42:48.613Z,3.05
2023-03-05T03:47:42.073Z,3.22
2023-03-05T03:52:34.323Z,3.31
2023-03-05T03:57:24.696Z,3.29
2023-03-05T04:02:21.363Z,3.39
2023-03-05T04:07:14.443Z,3.38
2023-03-05T04:12:11.761Z,3.37
2023-03-05T04:17:02.733Z,3.38
2023-03-05T04:21:56.413Z,3.46
2023-03-05T04:26:49.584Z,3.19
2023-03-05T04:31:39.295Z,3.33
2023-03-05T04:36:33.133Z,3.44
2023-03-05T04:41:31.892Z,3.50
2023-03-05T04:46:30.595Z,3.49
2023-03-05T04:51:24.157Z,3.49
2023-03-05T04:56:21.776Z,3.53
2023-03-05T05:01:15.990Z,3.45
2023-03-05T05:06:10.691Z,3.41
2023-03-05T05:11:04.619Z,3.55
2023-03-05T05:15:54.735Z,3.54
2023-03-05T05:20:50.125Z,3.47
2023-03-05T05:25:41.012Z,3.40
2023-03-05T05:30:31.226Z,3.35
2023-03-05T05:35:29.559Z,3.30
2023-03-05T05:40:25.842Z,3.25
2023-03-05T05:45:19.036Z,3.18
2023-03-05T05:50:16.794Z,3.11
2023-03-05T05:55:18.326Z,3.02
2023-03-05T06:00:18.173Z,2.95
2023-03-05T06:05:09.222Z,2.92
2023-03-05T06:10:02.412Z,2.90
2023-03-05T06:14:55.086Z,2.84
2023-03-05T06:19:54.051Z,2.79
2023-03-05T06:24:47.395Z,2.79
2023-03-05T06:29:40.910Z,2.72
2023-03-05T06:34:33.349Z,2.83
2023-03-05T06:39:31.649Z,2.82
2023-03-05T06:44:23.955Z,2.87
2023-03-05T06:49:28.269Z,2.89
2023-03-05T06:54:30.268Z,2.88
2023-03-05T06:59:27.538Z,3.03
2023-03-05T07:04:20.645Z,3.11
2023-03-05T07:09:15.531Z,3.20
2023-03-05T07:14:14.874Z,3.29
2023-03-05T07:19:11.066Z,3.43
2023-03-05T07:24:03.984Z,3.52
2023-03-05T07:28:56.584Z,3.59
2023-03-05T07:33:53.225Z,3.61
2023-03-05T07:38:59.111Z,3.60
2023-03-05T07:43:54.891Z,3.72
2023-03-05T07:48:48.476Z,3.81
2023-03-05T07:53:56.890Z,3.91
2023-03-05T07:58:52.145Z,4.02
2023-03-05T08:03:44.546Z,4.17
2023-03-05T08:08:37.379Z,4.27
2023-03-05T08:13:30.532Z,4.32
2023-03-05T08:18:27.795Z,4.40
2023-03-05T08:23:22.602Z,4.50
2023-03-05T08:28:17.068Z,4.60
2023-03-05T08:33:07.358Z,4.64
2023-03-05T08:38:00.850Z,4.71
2023-03-05T08:42:55.309Z,4.74
2023-03-05T08:47:51.888Z,4.64
2023-03-05T08:52:43.669Z,4.63
2023-03-05T08:57:49.535Z,4.66
2023-03-05T09:02:44.496Z,4.60
2023-03-05T09:07:35.231Z,4.58
2023-03-05T09:12:29.835Z,4.60
2023-03-05T09:17:27.841Z,4.66
2023-03-05T09:22:19.926Z,4.80
2023-03-05T09:27:10.448Z,5.03
2023-03-05T09:32:01.642Z,5.11
2023-03-05T09:36:54.446Z,5.28
2023-03-05T09:42:02.537Z,5.39
2023-03-05T09:46:58.597Z,5.57
2023-03-05T09:51:59.229Z,5.72
2023-03-05T09:56:55.035Z,5.98
2023-03-05T10:01:57.150Z,6.41
2023-03-05T10:07:00.565Z,6.75
2023-03-05T10:11:58.541Z,6.87
2023-03-05T10:17:03.720Z,6.87
2023-03-05T10:22:00.061Z,6.39
2023-03-05T10:27:01.849Z,6.05
2023-03-05T10:32:00.706Z,5.63
2023-03-05T10:37:10.765Z,5.54
2023-03-05T10:42:10.569Z,5.50
2023-03-05T10:47:01.566Z,5.54
2023-03-05T10:52:18.558Z,5.51
2023-03-05T10:57:24.749Z,5.59
2023-03-05T11:02:15.793Z,5.77
2023-03-05T11:07:36.414Z,5.99
2023-03-05T11:12:54.522Z,6.27
2023-03-05T11:17:50.557Z,6.48
2023-03-05T11:23:08.048Z,6.41
2023-03-05T11:28:33.481Z,6.58
2023-03-05T11:44:50.782Z,6.93
2023-03-05T11:49:58.388Z,6.99
2023-03-05T11:55:01.638Z,7.20
2023-03-05T12:00:05.857Z,7.03
2023-03-05T12:05:05.199Z,7.15
2023-03-05T12:10:03.300Z,7.10
2023-03-05T12:15:01.779Z,7.07
2023-03-05T12:20:06.453Z,7.15
2023-03-05T12:25:35.290Z,7.01
2023-03-05T12:30:46.075Z,6.88
2023-03-05T12:35:49.729Z,6.91
2023-03-05T12:40:43.693Z,6.95
2023-03-05T12:45:41.168Z,6.98
2023-03-05T12:50:50.982Z,6.97
2023-03-05T12:55:59.497Z,6.88
2023-03-05T13:01:03.783Z,6.70
2023-03-05T13:05:58.185Z,6.70
2023-03-05T13:10:58.986Z,6.69
2023-03-05T13:15:52.543Z,6.55
2023-03-05T13:20:46.098Z,6.57
2023-03-05T13:25:39.617Z,6.56
2023-03-05T13:30:37.109Z,6.60
2023-03-05T13:35:32.151Z,6.54
2023-03-05T13:40:35.530Z,6.64
2023-03-05T13:45:35.102Z,6.71
2023-03-05T13:50:28.289Z,6.70
2023-03-05T13:55:20.518Z,6.69
2023-03-05T14:00:30.945Z,6.64
2023-03-05T14:05:28.227Z,6.54
2023-03-05T14:10:33.598Z,6.56
2023-03-05T14:15:25.909Z,6.60
2023-03-05T14:20:28.096Z,6.52
2023-03-05T14:25:38.898Z,6.58
2023-03-05T14:30:31.106Z,6.69
2023-03-05T14:35:29.457Z,6.69
2023-03-05T14:40:28.145Z,6.63
2023-03-05T14:45:22.218Z,6.46
2023-03-05T14:50:15.402Z,6.48
2023-03-05T14:55:09.838Z,6.45
2023-03-05T15:00:03.097Z,6.45
2023-03-05T15:05:10.258Z,6.44
2023-03-05T15:10:07.139Z,6.39
2023-03-05T15:15:09.890Z,6.40
2023-03-05T15:20:14.847Z,6.38
2023-03-05T15:25:13.115Z,6.46
2023-03-05T15:30:04.219Z,6.39
2023-03-05T15:35:29.331Z,6.34
2023-03-05T15:40:21.927Z,6.28
2023-03-05T15:45:18.501Z,6.25
2023-03-05T15:50:23.920Z,6.14
2023-03-05T15:55:32.550Z,6.11
2023-03-05T16:00:38.929Z,6.02
2023-03-05T16:05:39.191Z,5.94
2023-03-05T16:10:32.275Z,5.90
2023-03-05T16:15:27.791Z,5.80
2023-03-05T16:20:25.634Z,5.75
2023-03-05T16:25:18.935Z,5.67
2023-03-05T16:30:11.705Z,5.60
2023-03-05T16:35:01.566Z,5.56
2023-03-05T16:39:53.114Z,5.57
2023-03-05T16:44:53.676Z,5.51
2023-03-05T16:49:43.890Z,5.47
2023-03-05T16:54:34.717Z,5.49
2023-03-05T16:59:27.663Z,5.47
2023-03-05T17:04:22.992Z,5.25
2023-03-05T17:09:27.436Z,5.24
2023-03-05T17:14:19.646Z,5.14
2023-03-05T17:19:13.226Z,5.09
2023-03-05T17:24:08.382Z,5.08
2023-03-05T17:29:01.744Z,5.07
2023-03-05T17:33:52.097Z,5.08
2023-03-05T17:38:41.973Z,5.05
2023-03-05T17:43:38.319Z,5.06
2023-03-05T17:48:29.486Z,5.02
2023-03-05T17:53:20.641Z,5.05
2023-03-05T17:58:14.445Z,4.99
2023-03-05T18:03:11.047Z,4.97
2023-03-05T18:08:03.861Z,4.88
2023-03-05T18:12:57.805Z,4.87
2023-03-05T18:22:57.372Z,4.76
2023-03-05T18:27:51.500Z,4.72
2023-03-05T18:32:54.366Z,4.64
2023-03-05T18:37:44.656Z,4.61
2023-03-05T18:42:46.125Z,4.63
2023-03-05T18:47:39.935Z,4.47
2023-03-05T18:52:38.042Z,4.31
2023-03-05T18:57:28.627Z,4.28
2023-03-05T19:02:23.992Z,4.19
2023-03-05T19:07:16.191Z,4.14
2023-03-05T19:12:07.321Z,4.08
2023-03-05T19:17:04.439Z,4.08
2023-03-05T19:22:01.343Z,4.09
2023-03-05T19:26:55.661Z,4.09
2023-03-05T19:31:48.230Z,4.06
2023-03-05T19:36:41.244Z,4.08
2023-03-05T19:41:37.385Z,4.07
2023-03-05T19:46:28.226Z,4.03
2023-03-05T19:51:19.586Z,4.02
2023-03-05T19:56:11.705Z,4.00
2023-03-05T20:01:20.579Z,3.98
2023-03-05T20:06:13.013Z,3.97
2023-03-05T20:11:04.476Z,3.95
2023-03-05T20:15:55.361Z,3.89
2023-03-05T20:20:57.455Z,3.85
2023-03-05T20:25:51.610Z,3.82
2023-03-05T20:30:43.943Z,3.82
2023-03-05T20:35:36.914Z,3.82
2023-03-05T20:40:36.427Z,3.81
2023-03-05T20:45:32.789Z,3.79
2023-03-05T20:50:26.933Z,3.73
2023-03-05T20:55:19.099Z,3.65
2023-03-05T21:00:14.475Z,3.52
2023-03-05T21:05:12.883Z,3.52
2023-03-05T21:10:05.243Z,3.52
2023-03-05T21:14:59.629Z,3.52
2023-03-05T21:19:53.580Z,3.48
2023-03-05T21:25:00.984Z,3.52
2023-03-05T21:29:56.693Z,3.54
2023-03-05T21:34:47.868Z,3.54
2023-03-05T21:39:42.262Z,3.51
2023-03-05T21:44:35.556Z,3.55
2023-03-05T21:49:28.083Z,3.47
2023-03-05T21:54:26.404Z,3.43
2023-03-05T21:59:21.755Z,3.40
2023-03-05T22:04:11.444Z,3.30
2023-03-05T22:09:00.942Z,3.29
2023-03-05T22:13:51.847Z,3.23
2023-03-05T22:18:46.840Z,3.24
2023-03-05T22:23:40.725Z,3.13
2023-03-05T22:28:35.960Z,3.18
2023-03-05T22:33:31.400Z,3.16
2023-03-05T22:38:28.436Z,3.11
2023-03-05T22:43:29.042Z,3.12
2023-03-05T22:48:23.436Z,3.07
2023-03-05T22:53:14.108Z,3.12
2023-03-05T22:58:13.219Z,3.04
2023-03-05T23:03:03.787Z,3.01
2023-03-05T23:07:55.236Z,2.93
2023-03-05T23:12:56.244Z,2.94
2023-03-05T23:17:51.549Z,2.93
2023-03-05T23:22:45.102Z,2.90
2023-03-05T23:27:37.215Z,2.88
2023-03-05T23:32:28.520Z,2.81
2023-03-05T23:37:23.929Z,2.78
2023-03-05T23:42:13.487Z,2.78
2023-03-05T23:47:03.148Z,2.77
2023-03-05T23:51:53.466Z,2.83
2023-03-05T23:56:46.071Z,2.76
